Time;durP1;ratioP1;P1;durP2;ratioP2;P2;SDS_P1;SDS_P2;PMS_P1;PMS_P2;Temp;Humidity;BMP_temperature;BMP_pressure;BME280_temperature;BME280_humidity;BME280_pressure;Samples;Min_cycle;Max_cycle;Signal;HPM_P1;HPM_P2
2023/03/27 00:00:09;;;;;;;3.85;2.22;;;;;;;0.00;100.00;59042.03;10390110;28;20026;-71
2023/03/27 00:05:09;;;;;;;5.28;2.60;;;;;;;0.00;100.00;59042.03;10391046;28;20133;-71
2023/03/27 00:10:11;;;;;;;3.60;1.95;;;;;;;0.00;100.00;59042.03;10394482;28;20422;-71
2023/03/27 00:15:16;;;;;;;5.88;3.03;;;;;;;0.00;100.00;59042.03;10378909;28;20068;-71
2023/03/27 00:20:20;;;;;;;7.97;2.95;;;;;;;0.00;100.00;59042.03;10386277;28;20033;-72
2023/03/27 00:25:23;;;;;;;8.77;3.03;;;;;;;0.00;100.00;59042.03;10392882;28;20098;-71
2023/03/27 00:30:27;;;;;;;8.23;3.40;;;;;;;0.00;100.00;59042.03;10361993;28;20033;-70
2023/03/27 00:35:28;;;;;;;5.47;3.33;;;;;;;0.00;100.00;59042.03;10360164;28;20033;-70
2023/03/27 00:40:31;;;;;;;10.00;4.28;;;;;;;0.00;100.00;59042.03;10370683;28;20472;-70
2023/03/27 00:45:32;;;;;;;10.05;3.92;;;;;;;0.00;100.00;59042.03;10355106;28;20050;-70
2023/03/27 00:50:39;;;;;;;7.40;3.33;;;;;;;0.00;100.00;59042.03;10359946;28;20052;-69
2023/03/27 00:55:42;;;;;;;7.45;3.60;;;;;;;0.00;100.00;59042.03;10362747;28;20163;-70
2023/03/27 01:00:43;;;;;;;10.55;4.45;;;;;;;0.00;100.00;59042.03;10357802;28;20073;-70
2023/03/27 01:05:45;;;;;;;11.80;4.50;;;;;;;0.00;100.00;59042.03;10350598;28;20116;-72
2023/03/27 01:11:00;;;;;;;13.10;3.97;;;;;;;0.00;100.00;59042.03;10365721;28;20415;-71
2023/03/27 01:16:15;;;;;;;10.13;3.33;;;;;;;0.00;100.00;59042.03;10358902;28;20465;-71
2023/03/27 01:21:54;;;;;;;4.03;2.90;;;;;;;0.00;100.00;59042.03;10359601;28;20608;-71
2023/03/27 01:26:56;;;;;;;;;;;;;;;0.00;100.00;59042.03;10360246;28;20423;-70
2023/03/27 01:32:04;;;;;;;11.30;5.03;;;;;;;0.00;100.00;59042.03;10363529;28;20273;-71
2023/03/27 01:37:32;;;;;;;9.95;5.05;;;;;;;0.00;100.00;59042.03;10362876;28;20468;-71
2023/03/27 01:42:45;;;;;;;10.23;4.85;;;;;;;0.00;100.00;59042.03;10350561;28;20064;-71
2023/03/27 01:47:57;;;;;;;20.77;6.70;;;;;;;0.00;100.00;59042.03;10364543;28;20478;-71
2023/03/27 01:53:14;;;;;;;11.98;5.28;;;;;;;0.00;100.00;59042.03;10362224;28;20425;-71
2023/03/27 01:58:21;;;;;;;10.05;5.60;;;;;;;0.00;100.00;59042.03;10364562;28;20132;-71
2023/03/27 02:03:38;;;;;;;14.00;6.97;;;;;;;0.00;100.00;59042.03;10363852;28;20096;-71
2023/03/27 02:08:47;;;;;;;10.73;5.22;;;;;;;0.00;100.00;59042.03;10362639;28;21080;-71
2023/03/27 02:13:53;;;;;;;13.50;5.72;;;;;;;0.00;100.00;59042.03;10357331;28;20461;-71
2023/03/27 02:19:00;;;;;;;15.23;6.60;;;;;;;0.00;100.00;59042.03;10358595;28;20457;-71
2023/03/27 02:24:01;;;;;;;14.38;7.03;;;;;;;0.00;100.00;59042.03;10360154;28;20029;-71
2023/03/27 02:29:17;;;;;;;14.38;6.93;;;;;;;0.00;100.00;59042.03;10385684;28;20038;-70
2023/03/27 02:34:23;;;;;;;16.45;8.05;;;;;;;0.00;100.00;59042.03;10384023;28;20091;-71
2023/03/27 02:39:35;;;;;;;15.48;8.05;;;;;;;0.00;100.00;59042.03;10385538;28;20067;-69
2023/03/27 02:44:42;;;;;;;19.77;9.40;;;;;;;0.00;100.00;59042.03;10385289;28;20029;-71
2023/03/27 02:49:52;;;;;;;17.33;9.32;;;;;;;0.00;100.00;59042.03;10384371;28;20312;-70
2023/03/27 02:55:04;;;;;;;22.40;7.80;;;;;;;0.00;100.00;59042.03;10384800;28;20037;-71
2023/03/27 03:00:24;;;;;;;19.90;8.32;;;;;;;0.00;100.00;59042.03;10385075;28;20885;-71
2023/03/27 03:05:26;;;;;;;19.75;8.00;;;;;;;0.00;100.00;59042.03;10384577;28;20034;-71
2023/03/27 03:10:26;;;;;;;18.23;8.13;;;;;;;0.00;100.00;59042.03;10384271;28;20037;-71
2023/03/27 03:15:27;;;;;;;15.77;8.60;;;;;;;0.00;100.00;59042.03;10384282;28;20029;-71
2023/03/27 03:20:28;;;;;;;15.55;7.47;;;;;;;0.00;100.00;59042.03;10383568;28;20029;-71
2023/03/27 03:25:30;;;;;;;13.70;8.18;;;;;;;0.00;100.00;59042.03;10384200;28;20464;-72
2023/03/27 03:30:30;;;;;;;15.35;7.40;;;;;;;0.00;100.00;59042.03;10383463;28;20041;-71
2023/03/27 03:35:33;;;;;;;15.87;7.17;;;;;;;0.00;100.00;59042.03;10383322;28;20060;-71
2023/03/27 03:40:34;;;;;;;13.05;7.25;;;;;;;0.00;100.00;59042.03;10383047;28;20499;-71
2023/03/27 03:45:34;;;;;;;22.17;8.60;;;;;;;0.00;100.00;59042.03;10383374;28;20870;-72
2023/03/27 03:50:35;;;;;;;14.65;7.78;;;;;;;0.00;100.00;59042.03;10382074;28;20033;-72
2023/03/27 03:55:36;;;;;;;14.77;8.32;;;;;;;0.00;100.00;59042.03;10382095;28;20033;-70
2023/03/27 04:00:38;;;;;;;17.98;8.20;;;;;;;0.00;100.00;59042.03;10377428;28;20026;-71
2023/03/27 04:05:38;;;;;;;23.30;7.85;;;;;;;0.00;100.00;59042.03;10341211;28;20037;-71
2023/03/27 04:10:40;;;;;;;13.63;7.65;;;;;;;0.00;100.00;59042.03;10347697;28;20034;-71
2023/03/27 04:15:40;;;;;;;20.00;8.73;;;;;;;0.00;100.00;59042.03;10344369;28;20084;-73
2023/03/27 04:20:40;;;;;;;13.90;7.97;;;;;;;0.00;100.00;59042.03;10353739;28;20116;-71
2023/03/27 04:25:41;;;;;;;15.13;6.87;;;;;;;0.00;100.00;59042.03;10343280;28;20265;-71
2023/03/27 04:30:43;;;;;;;21.45;8.55;;;;;;;0.00;100.00;59042.03;10339876;28;20276;-70
2023/03/27 04:35:45;;;;;;;20.60;8.77;;;;;;;0.00;100.00;59042.03;10341581;28;20033;-70
2023/03/27 04:40:47;;;;;;;16.25;7.22;;;;;;;0.00;100.00;59042.03;10340019;28;20038;-72
2023/03/27 04:45:48;;;;;;;17.35;7.43;;;;;;;0.00;100.00;59042.03;10375042;28;20064;-71
2023/03/27 04:50:48;;;;;;;10.48;6.55;;;;;;;0.00;100.00;59042.03;10350329;28;20794;-71
2023/03/27 04:55:51;;;;;;;14.50;6.55;;;;;;;0.00;100.00;59042.03;10378022;28;20590;-71
2023/03/27 05:00:54;;;;;;;13.98;5.90;;;;;;;0.00;100.00;59042.03;10338781;28;20084;-72
2023/03/27 05:05:55;;;;;;;13.48;6.38;;;;;;;0.00;100.00;59042.03;10378101;28;20030;-71
2023/03/27 05:10:56;;;;;;;16.17;5.53;;;;;;;0.00;100.00;59042.03;10409356;28;20045;-71
2023/03/27 05:15:58;;;;;;;13.27;6.57;;;;;;;0.00;100.00;59042.03;10376619;28;20018;-72
2023/03/27 05:20:58;;;;;;;28.98;6.97;;;;;;;0.00;100.00;59042.03;10350552;28;20034;-70
2023/03/27 05:25:59;;;;;;;38.53;7.18;;;;;;;0.00;100.00;59042.03;10338943;28;20034;-71
2023/03/27 05:30:59;;;;;;;21.70;7.78;;;;;;;0.00;100.00;59042.03;10343478;28;20041;-71
2023/03/27 05:36:03;;;;;;;18.75;6.95;;;;;;;0.00;100.00;59042.03;10363311;28;20037;-71
2023/03/27 05:41:04;;;;;;;21.55;7.32;;;;;;;0.00;100.00;59042.03;10378947;28;20032;-70
2023/03/27 05:46:04;;;;;;;15.18;6.75;;;;;;;0.00;100.00;59042.03;10379992;28;20049;-70
2023/03/27 05:51:05;;;;;;;16.55;5.45;;;;;;;0.00;100.00;59042.03;10387229;28;20034;-70
2023/03/27 05:56:07;;;;;;;17.65;6.53;;;;;;;0.00;100.00;59042.03;10386793;28;20410;-71
2023/03/27 06:01:09;;;;;;;8.77;4.35;;;;;;;0.00;100.00;59042.03;10368094;28;20622;-70
2023/03/27 06:06:11;;;;;;;11.23;4.45;;;;;;;0.00;100.00;59042.03;10363337;28;20045;-70
2023/03/27 06:11:14;;;;;;;10.45;3.17;;;;;;;0.00;100.00;59042.03;10358917;28;20026;-70
2023/03/27 06:16:15;;;;;;;5.03;2.35;;;;;;;0.00;100.00;59042.03;10346510;28;20030;-71
2023/03/27 06:21:16;;;;;;;13.63;2.22;;;;;;;0.00;100.00;59042.03;10363800;28;20496;-71
2023/03/27 06:26:17;;;;;;;5.50;2.08;;;;;;;0.00;100.00;59042.03;10376103;28;20092;-71
2023/03/27 06:31:18;;;;;;;4.35;2.03;;;;;;;0.00;100.00;59042.03;10369564;28;20415;-72
2023/03/27 06:36:19;;;;;;;2.75;1.45;;;;;;;0.00;100.00;59042.03;10386374;28;20108;-70
2023/03/27 06:41:19;;;;;;;3.00;2.17;;;;;;;0.00;100.00;59042.03;10385095;28;20029;-70
2023/03/27 06:46:20;;;;;;;9.37;2.47;;;;;;;0.00;100.00;59042.03;10381313;28;20469;-70
2023/03/27 06:51:21;;;;;;;11.30;2.13;;;;;;;0.00;100.00;59042.03;10385541;28;20375;-71
2023/03/27 06:56:22;;;;;;;7.80;2.15;;;;;;;0.00;100.00;59042.03;10385163;28;20271;-71
2023/03/27 07:01:22;;;;;;;3.20;2.23;;;;;;;0.00;100.00;59042.03;10385280;28;20033;-72
2023/03/27 07:06:24;;;;;;;5.70;1.63;;;;;;;0.00;100.00;59042.03;10384701;28;20025;-72
2023/03/27 07:11:24;;;;;;;4.13;2.08;;;;;;;0.00;100.00;59042.03;10383681;28;20403;-71
2023/03/27 07:16:25;;;;;;;2.43;1.70;;;;;;;0.00;100.00;59042.03;10384486;28;20029;-71
2023/03/27 07:21:25;;;;;;;2.60;1.52;;;;;;;0.00;100.00;59042.03;10384938;28;20272;-71
2023/03/27 07:26:26;;;;;;;5.37;2.43;;;;;;;0.00;100.00;59042.03;10383937;28;20026;-72
2023/03/27 07:31:27;;;;;;;3.30;1.90;;;;;;;0.00;100.00;59042.03;10382132;28;20277;-70
2023/03/27 07:36:28;;;;;;;4.20;1.73;;;;;;;0.00;100.00;59042.03;10382283;28;20033;-71
2023/03/27 07:41:31;;;;;;;5.93;2.30;;;;;;;0.00;100.00;59042.03;10383158;28;20727;-70
2023/03/27 07:46:32;;;;;;;5.90;2.10;;;;;;;0.00;100.00;59042.03;10382692;28;20045;-71
2023/03/27 07:51:35;;;;;;;2.70;1.80;;;;;;;0.00;100.00;59042.03;10370046;28;20033;-71
2023/03/27 07:56:36;;;;;;;5.88;2.22;;;;;;;0.00;100.00;59042.03;10382569;28;20091;-70
2023/03/27 08:01:37;;;;;;;6.35;2.03;;;;;;;0.00;100.00;59042.03;10382667;28;20398;-71
2023/03/27 08:06:37;;;;;;;4.93;1.85;;;;;;;0.00;100.00;59042.03;10382760;28;20385;-71
2023/03/27 08:11:39;;;;;;;5.75;2.10;;;;;;;0.00;100.00;59042.03;10380898;28;20087;-70
2023/03/27 08:16:40;;;;;;;6.22;2.17;;;;;;;0.00;100.00;59042.03;10381843;28;20041;-70
2023/03/27 08:21:40;;;;;;;3.10;1.58;;;;;;;0.00;100.00;59042.03;10384860;28;20495;-70
2023/03/27 08:26:41;;;;;;;5.47;3.42;;;;;;;0.00;100.00;59042.03;10381952;28;20033;-70
2023/03/27 08:31:42;;;;;;;9.48;3.97;;;;;;;0.00;100.00;59042.03;10381418;28;20033;-71
2023/03/27 08:36:42;;;;;;;5.60;2.80;;;;;;;0.00;100.00;59042.03;10381143;28;20032;-70
2023/03/27 08:41:50;;;;;;;3.80;2.63;;;;;;;0.00;100.00;59042.03;10380967;28;20029;-71
2023/03/27 08:47:01;;;;;;;8.15;2.85;;;;;;;0.00;100.00;59042.03;10381206;28;20342;-72
2023/03/27 08:52:07;;;;;;;5.50;2.28;;;;;;;0.00;100.00;59042.03;10381446;28;20040;-71
2023/03/27 08:57:19;;;;;;;5.55;2.83;;;;;;;0.00;100.00;59042.03;10381027;28;20434;-71
2023/03/27 09:02:22;;;;;;;8.02;2.53;;;;;;;0.00;100.00;59042.03;10380770;28;20681;-72
2023/03/27 09:07:26;;;;;;;7.10;3.30;;;;;;;0.00;100.00;59042.03;10379784;28;20037;-72
2023/03/27 09:12:48;;;;;;;8.48;2.58;;;;;;;0.00;100.00;59042.03;10373249;28;20030;-72
2023/03/27 09:17:56;;;;;;;7.43;2.70;;;;;;;0.00;100.00;59042.03;10338921;28;20378;-70
2023/03/27 09:23:04;;;;;;;8.48;2.00;;;;;;;0.00;100.00;59042.03;10384132;28;20045;-70
2023/03/27 09:28:18;;;;;;;7.88;3.13;;;;;;;0.00;100.00;59042.03;10387400;28;20025;-71
2023/03/27 09:33:18;;;;;;;4.85;2.85;;;;;;;0.00;100.00;59042.03;10388942;28;20048;-70
2023/03/27 09:38:32;;;;;;;8.30;3.78;;;;;;;0.00;100.00;59042.03;10388602;28;20400;-72
2023/03/27 09:43:57;;;;;;;7.03;3.58;;;;;;;0.00;100.00;59042.03;10387881;28;20025;-71
2023/03/27 09:49:10;;;;;;;3.33;2.40;;;;;;;0.00;100.00;59042.03;10387540;28;20045;-71
2023/03/27 09:54:13;;;;;;;9.07;3.33;;;;;;;0.00;100.00;59042.03;10387658;28;20457;-70
2023/03/27 09:59:51;;;;;;;8.05;3.72;;;;;;;0.00;100.00;59042.03;10387572;28;20523;-71
2023/03/27 10:04:57;;;;;;;6.68;2.83;;;;;;;0.00;100.00;59042.03;10386821;28;20029;-70
2023/03/27 10:10:16;;;;;;;13.13;3.92;;;;;;;0.00;100.00;59042.03;10384959;28;20029;-71
2023/03/27 10:15:37;;;;;;;5.35;3.13;;;;;;;0.00;100.00;59042.03;10372637;28;20500;-71
2023/03/27 10:20:49;;;;;;;5.95;2.92;;;;;;;0.00;100.00;59042.03;10386400;28;20075;-71
2023/03/27 10:25:51;;;;;;;5.53;3.65;;;;;;;0.00;100.00;59042.03;10384940;28;20048;-70
2023/03/27 10:31:23;;;;;;;3.70;2.40;;;;;;;0.00;100.00;59042.03;10385691;28;20490;-70
2023/03/27 10:36:24;;;;;;;6.88;2.55;;;;;;;0.00;100.00;59042.03;10385696;28;20032;-72
2023/03/27 10:41:26;;;;;;;5.85;2.20;;;;;;;0.00;100.00;59042.03;10385536;28;20508;-72
2023/03/27 10:46:29;;;;;;;4.07;1.92;;;;;;;0.00;100.00;59042.03;10385461;28;20049;-72
2023/03/27 10:51:43;;;;;;;5.95;1.98;;;;;;;0.00;100.00;59042.03;10385444;28;20029;-69
2023/03/27 10:56:50;;;;;;;7.28;2.33;;;;;;;0.00;100.00;59042.03;10383804;28;20025;-71
2023/03/27 11:01:55;;;;;;;5.45;2.03;;;;;;;0.00;100.00;59042.03;10385211;28;20420;-70
2023/03/27 11:06:59;;;;;;;3.92;1.70;;;;;;;0.00;100.00;59042.03;10384098;28;20021;-71
2023/03/27 11:12:03;;;;;;;6.78;2.92;;;;;;;0.00;100.00;59042.03;10384250;28;20554;-71
2023/03/27 11:17:07;;;;;;;5.28;2.20;;;;;;;0.00;100.00;59042.03;10384449;28;20033;-70
2023/03/27 11:22:15;;;;;;;3.90;2.00;;;;;;;0.00;100.00;59042.03;10383866;28;20135;-72
2023/03/27 11:27:26;;;;;;;5.30;1.90;;;;;;;0.00;100.00;59042.03;10384288;28;20114;-70
2023/03/27 11:32:51;;;;;;;5.30;1.58;;;;;;;0.00;100.00;59042.03;10383609;28;20025;-70
2023/03/27 11:37:58;;;;;;;5.47;1.80;;;;;;;0.00;100.00;59042.03;10383161;28;20021;-70
2023/03/27 11:43:00;;;;;;;5.00;1.95;;;;;;;0.00;100.00;59042.03;10378738;28;20083;-70
2023/03/27 11:48:18;;;;;;;5.25;2.55;;;;;;;0.00;100.00;59042.03;10382557;28;20049;-70
2023/03/27 11:53:37;;;;;;;6.22;3.05;;;;;;;0.00;100.00;59042.03;10382027;28;20524;-70
2023/03/27 11:58:55;;;;;;;5.65;1.98;;;;;;;0.00;100.00;59042.03;10347712;28;20025;-73
2023/03/27 12:04:22;;;;;;;3.78;2.05;;;;;;;0.00;100.00;59042.03;10363904;28;20025;-74
2023/03/27 12:09:37;;;;;;;3.72;2.33;;;;;;;0.00;100.00;59042.03;10414182;28;20207;-74
2023/03/27 12:15:15;;;;;;;2.28;1.08;;;;;;;0.00;100.00;59042.03;10385729;28;20040;-72
2023/03/27 12:20:46;;;;;;;0.65;0.35;;;;;;;0.00;100.00;59042.03;10389497;28;20120;-72
2023/03/27 12:26:25;;;;;;;1.00;0.40;;;;;;;0.00;100.00;59042.03;10392234;28;21240;-73
2023/03/27 12:31:48;;;;;;;0.10;0.00;;;;;;;0.00;100.00;59042.03;10379028;28;20781;-71
2023/03/27 12:36:51;;;;;;;2.35;0.22;;;;;;;0.00;100.00;59042.03;10390332;28;20780;-73
2023/03/27 12:41:51;;;;;;;0.55;0.20;;;;;;;0.00;100.00;59042.03;10389307;28;20029;-71
2023/03/27 12:47:23;;;;;;;1.13;0.10;;;;;;;0.00;100.00;59042.03;10388042;28;20053;-71
2023/03/27 12:52:27;;;;;;;4.78;0.82;;;;;;;0.00;100.00;59042.03;10386792;28;20393;-71
2023/03/27 12:57:28;;;;;;;1.98;0.82;;;;;;;0.00;100.00;59042.03;10383202;28;20025;-72
2023/03/27 13:02:50;;;;;;;1.80;0.70;;;;;;;0.00;100.00;59042.03;10384356;28;20024;-71
2023/03/27 13:08:06;;;;;;;8.10;1.83;;;;;;;0.00;100.00;59042.03;10378466;28;20029;-71
2023/03/27 13:13:31;;;;;;;3.40;0.85;;;;;;;0.00;100.00;59042.03;10372458;28;20388;-71
2023/03/27 13:18:50;;;;;;;1.80;0.70;;;;;;;0.00;100.00;59042.03;10373925;28;20033;-72
2023/03/27 13:24:14;;;;;;;1.73;0.57;;;;;;;0.00;100.00;59042.03;10357389;28;20063;-72
2023/03/27 13:29:19;;;;;;;5.30;1.48;;;;;;;0.00;100.00;59042.03;10372028;28;20025;-71
2023/03/27 13:34:25;;;;;;;2.53;1.00;;;;;;;0.00;100.00;59042.03;10375368;28;20069;-75
2023/03/27 13:39:39;;;;;;;4.20;1.30;;;;;;;0.00;100.00;59042.03;10375135;28;20034;-74
2023/03/27 13:44:47;;;;;;;3.97;1.67;;;;;;;0.00;100.00;59042.03;10393879;28;20028;-72
2023/03/27 13:50:32;;;;;;;6.13;2.25;;;;;;;0.00;100.00;59042.03;10365922;28;20046;-70
2023/03/27 13:56:10;;;;;;;12.40;3.80;;;;;;;0.00;100.00;59042.03;10372382;28;20068;-71
2023/03/27 14:01:26;;;;;;;10.88;4.13;;;;;;;0.00;100.00;59042.03;10371684;28;20127;-72
2023/03/27 14:07:08;;;;;;;6.57;2.30;;;;;;;0.00;100.00;59042.03;10366987;28;20025;-72
2023/03/27 14:12:26;;;;;;;4.38;2.50;;;;;;;0.00;100.00;59042.03;10379095;28;20593;-73
2023/03/27 14:17:53;;;;;;;8.52;2.30;;;;;;;0.00;100.00;59042.03;10384315;28;20040;-71
2023/03/27 14:22:59;;;;;;;5.15;3.22;;;;;;;0.00;100.00;59042.03;10395743;28;20040;-69
2023/03/27 14:28:00;;;;;;;4.45;2.63;;;;;;;0.00;100.00;59042.03;10409875;28;20029;-72
2023/03/27 14:33:05;;;;;;;7.75;3.08;;;;;;;0.00;100.00;59042.03;10408768;28;20483;-72
2023/03/27 14:38:25;;;;;;;7.53;3.92;;;;;;;0.00;100.00;59042.03;10410714;28;20059;-69
2023/03/27 14:43:27;;;;;;;5.97;2.70;;;;;;;0.00;100.00;59042.03;10406836;28;20403;-71
2023/03/27 14:48:37;;;;;;;4.13;1.95;;;;;;;0.00;100.00;59042.03;10405574;28;20053;-72
2023/03/27 14:53:42;;;;;;;2.55;1.52;;;;;;;0.00;100.00;59042.03;10401980;28;20562;-71
2023/03/27 14:58:45;;;;;;;2.55;1.58;;;;;;;0.00;100.00;59042.03;10405576;28;20025;-72
2023/03/27 15:03:46;;;;;;;3.60;1.83;;;;;;;0.00;100.00;59042.03;10396020;28;20029;-73
2023/03/27 15:08:54;;;;;;;4.47;2.20;;;;;;;0.00;100.00;59042.03;10408483;28;20029;-72
2023/03/27 15:13:55;;;;;;;3.90;1.65;;;;;;;0.00;100.00;59042.03;10409715;28;20037;-73
2023/03/27 15:19:29;;;;;;;4.90;1.83;;;;;;;0.00;100.00;59042.03;10405040;28;20139;-70
2023/03/27 15:24:49;;;;;;;6.65;2.45;;;;;;;0.00;100.00;59042.03;10379577;28;20124;-72
2023/03/27 15:29:58;;;;;;;5.40;2.40;;;;;;;0.00;100.00;59042.03;10400322;28;20515;-71
2023/03/27 15:35:04;;;;;;;7.93;2.40;;;;;;;0.00;100.00;59042.03;10399194;28;20029;-72
2023/03/27 15:40:13;;;;;;;4.07;2.50;;;;;;;0.00;100.00;59042.03;10401391;28;20060;-71
2023/03/27 15:45:16;;;;;;;7.15;2.35;;;;;;;0.00;100.00;59042.03;10402802;28;20112;-72
2023/03/27 15:50:21;;;;;;;4.03;2.35;;;;;;;0.00;100.00;59042.03;10406428;28;20120;-72
2023/03/27 15:55:41;;;;;;;6.45;2.00;;;;;;;0.00;100.00;59042.03;10406540;28;20036;-72
2023/03/27 16:00:47;;;;;;;7.03;2.92;;;;;;;0.00;100.00;59042.03;10402932;28;20043;-72
2023/03/27 16:05:54;;;;;;;3.88;2.35;;;;;;;0.00;100.00;59042.03;10404437;28;20130;-71
2023/03/27 16:10:54;;;;;;;15.05;2.90;;;;;;;0.00;100.00;59042.03;10400207;28;20033;-72
2023/03/27 16:16:20;;;;;;;9.00;2.95;;;;;;;0.00;100.00;59042.03;10405113;28;20518;-74
2023/03/27 16:21:23;;;;;;;7.75;4.07;;;;;;;0.00;100.00;59042.03;10404370;28;20154;-72
2023/03/27 16:26:29;;;;;;;8.15;3.50;;;;;;;0.00;100.00;59042.03;10407008;28;20041;-72
2023/03/27 16:31:30;;;;;;;10.00;3.95;;;;;;;0.00;100.00;59042.03;10406898;28;20481;-71
2023/03/27 16:36:31;;;;;;;8.00;4.55;;;;;;;0.00;100.00;59042.03;10402202;28;20431;-72
2023/03/27 16:41:32;;;;;;;8.27;4.07;;;;;;;0.00;100.00;59042.03;10403043;28;20106;-72
2023/03/27 16:46:32;;;;;;;8.27;4.07;;;;;;;0.00;100.00;59042.03;10402865;28;20049;-71
2023/03/27 16:51:34;;;;;;;15.32;5.10;;;;;;;0.00;100.00;59042.03;10420311;28;20608;-71
2023/03/27 16:56:36;;;;;;;9.70;4.38;;;;;;;0.00;100.00;59042.03;10386798;28;20645;-71
2023/03/27 17:01:36;;;;;;;25.30;5.47;;;;;;;0.00;100.00;59042.03;10390892;28;20750;-72
2023/03/27 17:06:37;;;;;;;12.02;5.45;;;;;;;0.00;100.00;59042.03;10392417;28;20283;-72
2023/03/27 17:11:38;;;;;;;11.10;4.70;;;;;;;0.00;100.00;59042.03;10394481;28;20832;-71
2023/03/27 17:16:38;;;;;;;7.63;3.83;;;;;;;0.00;100.00;59042.03;10390389;28;20063;-74
2023/03/27 17:21:39;;;;;;;8.02;4.32;;;;;;;0.00;100.00;59042.03;10397393;28;20025;-73
2023/03/27 17:26:39;;;;;;;14.05;5.55;;;;;;;0.00;100.00;59042.03;10392515;28;20439;-71
2023/03/27 17:31:40;;;;;;;15.63;5.30;;;;;;;0.00;100.00;59042.03;10390086;28;20033;-71
2023/03/27 17:36:40;;;;;;;16.75;5.65;;;;;;;0.00;100.00;59042.03;10384238;28;20468;-71
2023/03/27 17:41:41;;;;;;;22.73;10.65;;;;;;;0.00;100.00;59042.03;10395537;28;20457;-69
2023/03/27 17:46:41;;;;;;;11.17;6.50;;;;;;;0.00;100.00;59042.03;10398268;28;20049;-70
2023/03/27 17:51:42;;;;;;;17.20;6.13;;;;;;;0.00;100.00;59042.03;10397667;28;20307;-71
2023/03/27 17:56:42;;;;;;;14.38;6.13;;;;;;;0.00;100.00;59042.03;10400829;28;20045;-71
2023/03/27 18:01:44;;;;;;;20.70;8.73;;;;;;;0.00;100.00;59042.03;10400704;28;20453;-72
2023/03/27 18:06:45;;;;;;;19.83;8.30;;;;;;;0.00;100.00;59042.03;10394305;28;20128;-72
2023/03/27 18:11:46;;;;;;;24.80;11.20;;;;;;;0.00;100.00;59042.03;10404016;28;20423;-72
2023/03/27 18:16:46;;;;;;;19.33;9.88;;;;;;;0.00;100.00;59042.03;10398933;28;20033;-71
2023/03/27 18:21:46;;;;;;;16.20;9.95;;;;;;;0.00;100.00;59042.03;10398902;28;20427;-75
2023/03/27 18:26:47;;;;;;;25.50;10.50;;;;;;;0.00;100.00;59042.03;10399542;28;20434;-75
2023/03/27 18:31:47;;;;;;;10.18;3.83;;;;;;;0.00;100.00;59042.03;10398363;28;20402;-76
2023/03/27 18:36:50;;;;;;;3.17;1.80;;;;;;;0.00;100.00;59042.03;10399467;28;20029;-71
2023/03/27 18:41:52;;;;;;;2.85;2.00;;;;;;;0.00;100.00;59042.03;10393830;28;20067;-79
2023/03/27 18:46:53;;;;;;;4.95;2.00;;;;;;;0.00;100.00;59042.03;10393466;28;20496;-73
2023/03/27 18:51:53;;;;;;;4.03;2.30;;;;;;;0.00;100.00;59042.03;10395906;28;20028;-70
2023/03/27 18:56:53;;;;;;;3.43;2.30;;;;;;;0.00;100.00;59042.03;10393972;28;20024;-71
2023/03/27 19:01:54;;;;;;;4.78;2.30;;;;;;;0.00;100.00;59042.03;10395731;28;20334;-70
2023/03/27 19:06:54;;;;;;;5.97;2.97;;;;;;;0.00;100.00;59042.03;10388947;28;20029;-76
2023/03/27 19:11:55;;;;;;;3.97;2.78;;;;;;;0.00;100.00;59042.03;10397927;28;20030;-71
2023/03/27 19:16:55;;;;;;;4.38;2.95;;;;;;;0.00;100.00;59042.03;10392121;28;20920;-78
2023/03/27 19:21:59;;;;;;;7.10;3.08;;;;;;;0.00;100.00;59042.03;10398129;28;20022;-84
2023/03/27 19:27:00;;;;;;;4.75;3.47;;;;;;;0.00;100.00;59042.03;10398828;28;20372;-80
2023/03/27 19:32:00;;;;;;;6.60;3.75;;;;;;;0.00;100.00;59042.03;10400517;28;20061;-79
2023/03/27 19:37:00;;;;;;;9.07;4.88;;;;;;;0.00;100.00;59042.03;10397420;28;20035;-77
2023/03/27 19:42:01;;;;;;;5.97;3.80;;;;;;;0.00;100.00;59042.03;10389671;28;20037;-79
2023/03/27 19:47:02;;;;;;;10.27;6.05;;;;;;;0.00;100.00;59042.03;10398252;28;20706;-72
2023/03/27 19:52:02;;;;;;;9.63;5.32;;;;;;;0.00;100.00;59042.03;10394215;28;20673;-74
2023/03/27 19:57:03;;;;;;;9.02;4.80;;;;;;;0.00;100.00;59042.03;10394818;28;20480;-74
2023/03/27 20:02:03;;;;;;;7.32;3.97;;;;;;;0.00;100.00;59042.03;10399340;28;20032;-76
2023/03/27 20:07:06;;;;;;;6.53;4.15;;;;;;;0.00;100.00;59042.03;10396163;28;20021;-73
2023/03/27 20:12:06;;;;;;;6.93;4.25;;;;;;;0.00;100.00;59042.03;10403598;28;21625;-73
2023/03/27 20:17:07;;;;;;;6.10;3.53;;;;;;;0.00;100.00;59042.03;10399716;28;20040;-74
2023/03/27 20:22:09;;;;;;;5.82;3.83;;;;;;;0.00;100.00;59042.03;10398322;28;20112;-80
2023/03/27 20:27:09;;;;;;;4.65;3.33;;;;;;;0.00;100.00;59042.03;10399676;28;20032;-77
2023/03/27 20:32:10;;;;;;;8.45;4.43;;;;;;;0.00;100.00;59042.03;10392923;28;20469;-75
2023/03/27 20:37:11;;;;;;;5.30;3.77;;;;;;;0.00;100.00;59042.03;10396212;28;20025;-75
2023/03/27 20:42:16;;;;;;;5.07;3.55;;;;;;;0.00;100.00;59042.03;10390055;28;20279;-72
2023/03/27 20:47:17;;;;;;;6.25;4.32;;;;;;;0.00;100.00;59042.03;10391567;28;20044;-75
2023/03/27 20:52:18;;;;;;;5.13;3.67;;;;;;;0.00;100.00;59042.03;10409305;28;20614;-73
2023/03/27 20:57:20;;;;;;;7.03;4.70;;;;;;;0.00;100.00;59042.03;10411675;28;20029;-74
2023/03/27 21:02:20;;;;;;;5.18;3.78;;;;;;;0.00;100.00;59042.03;10386139;28;20047;-72
2023/03/27 21:07:21;;;;;;;5.85;4.03;;;;;;;0.00;100.00;59042.03;10398056;28;20035;-73
2023/03/27 21:12:21;;;;;;;5.22;3.40;;;;;;;0.00;100.00;59042.03;10397074;28;20412;-73
2023/03/27 21:17:22;;;;;;;6.20;4.20;;;;;;;0.00;100.00;59042.03;10392676;28;20026;-73
2023/03/27 21:22:22;;;;;;;7.23;4.80;;;;;;;0.00;100.00;59042.03;10415994;28;20503;-72
2023/03/27 21:27:23;;;;;;;8.05;4.68;;;;;;;0.00;100.00;59042.03;10406471;28;20259;-72
2023/03/27 21:32:23;;;;;;;6.80;4.78;;;;;;;0.00;100.00;59042.03;10411931;28;20033;-72
2023/03/27 21:37:24;;;;;;;9.10;5.10;;;;;;;0.00;100.00;59042.03;10420392;28;20467;-72
2023/03/27 21:42:24;;;;;;;13.10;5.07;;;;;;;0.00;100.00;59042.03;10400766;28;20029;-72
2023/03/27 21:47:25;;;;;;;8.13;4.80;;;;;;;0.00;100.00;59042.03;10405029;28;20054;-72
2023/03/27 21:52:26;;;;;;;8.57;4.97;;;;;;;0.00;100.00;59042.03;10387432;28;20060;-72
2023/03/27 21:57:26;;;;;;;10.53;5.43;;;;;;;0.00;100.00;59042.03;10395640;28;20033;-73
2023/03/27 22:02:26;;;;;;;10.18;7.03;;;;;;;0.00;100.00;59042.03;10395525;28;20276;-72
2023/03/27 22:07:27;;;;;;;9.25;5.63;;;;;;;0.00;100.00;59042.03;10407248;28;20076;-74
2023/03/27 22:12:28;;;;;;;9.55;6.18;;;;;;;0.00;100.00;59042.03;10397367;28;20455;-72
2023/03/27 22:17:28;;;;;;;7.45;4.90;;;;;;;0.00;100.00;59042.03;10390078;28;20372;-71
2023/03/27 22:22:29;;;;;;;7.55;4.93;;;;;;;0.00;100.00;59042.03;10393545;28;20029;-72
2023/03/27 22:27:30;;;;;;;6.38;5.07;;;;;;;0.00;100.00;59042.03;10414858;28;20086;-71
2023/03/27 22:32:30;;;;;;;6.88;4.90;;;;;;;0.00;100.00;59042.03;10405734;28;20020;-71
2023/03/27 22:37:35;;;;;;;8.65;5.20;;;;;;;0.00;100.00;59042.03;10388364;28;20032;-72
2023/03/27 22:42:35;;;;;;;9.95;5.97;;;;;;;0.00;100.00;59042.03;10398002;28;20064;-72
2023/03/27 22:47:36;;;;;;;12.48;6.40;;;;;;;0.00;100.00;59042.03;10396112;28;20373;-72
2023/03/27 22:52:36;;;;;;;14.85;7.28;;;;;;;0.00;100.00;59042.03;10397721;28;20022;-72
2023/03/27 22:57:37;;;;;;;14.63;6.25;;;;;;;0.00;100.00;59042.03;10392122;28;20017;-73
2023/03/27 23:02:37;;;;;;;12.10;7.13;;;;;;;0.00;100.00;59042.03;10396859;28;20073;-72
2023/03/27 23:07:38;;;;;;;13.40;7.75;;;;;;;0.00;100.00;59042.03;10388951;28;20056;-72
2023/03/27 23:12:38;;;;;;;15.23;8.87;;;;;;;0.00;100.00;59042.03;10398122;28;20025;-72
2023/03/27 23:17:39;;;;;;;13.97;8.40;;;;;;;0.00;100.00;59042.03;10399392;28;20275;-73
2023/03/27 23:22:39;;;;;;;14.18;8.13;;;;;;;0.00;100.00;59042.03;10400650;28;20817;-72
2023/03/27 23:27:40;;;;;;;12.10;7.07;;;;;;;0.00;100.00;59042.03;10402016;28;20032;-73
2023/03/27 23:32:40;;;;;;;8.70;5.23;;;;;;;0.00;100.00;59042.03;10403313;28;20033;-73